createdAt,value
2022-08-27T00:01:23.582Z,31.90
2022-08-27T00:03:51.202Z,31.97
2022-08-27T00:06:19.313Z,32.03
2022-08-27T00:08:46.965Z,31.71
2022-08-27T00:11:14.495Z,31.72
2022-08-27T00:13:41.705Z,31.79
2022-08-27T00:16:10.628Z,31.78
2022-08-27T00:18:38.426Z,31.88
2022-08-27T00:21:06.921Z,32.00
2022-08-27T00:23:34.602Z,31.97
2022-08-27T00:26:02.868Z,31.76
2022-08-27T00:28:30.227Z,31.89
2022-08-27T00:30:57.527Z,31.82
2022-08-27T00:33:25.085Z,31.71
2022-08-27T00:35:52.581Z,31.68
2022-08-27T00:38:20.539Z,31.72
2022-08-27T00:40:48.306Z,31.64
2022-08-27T00:43:21.445Z,31.60
2022-08-27T00:45:49.067Z,31.61
2022-08-27T00:48:18.306Z,31.62
2022-08-27T00:50:47.119Z,31.66
2022-08-27T00:53:15.938Z,31.54
2022-08-27T00:55:44.956Z,31.51
2022-08-27T00:58:41.742Z,31.63
2022-08-27T01:01:11.971Z,31.57
2022-08-27T01:03:39.684Z,31.54
2022-08-27T01:06:09.264Z,31.47
2022-08-27T01:08:38.878Z,31.41
2022-08-27T01:11:06.218Z,31.46
2022-08-27T01:13:58.913Z,31.46
2022-08-27T01:16:22.602Z,31.54
2022-08-27T01:18:50.249Z,31.53
2022-08-27T01:21:43.787Z,31.54
2022-08-27T01:24:20.843Z,31.47
2022-08-27T01:26:48.077Z,31.34
2022-08-27T01:29:15.590Z,31.10
2022-08-27T01:31:42.864Z,31.05
2022-08-27T01:34:11.121Z,31.11
2022-08-27T01:36:38.591Z,30.87
2022-08-27T01:39:05.819Z,30.94
2022-08-27T01:41:33.187Z,31.01
2022-08-27T01:44:00.977Z,31.08
2022-08-27T01:46:28.622Z,30.82
2022-08-27T01:48:55.929Z,31.04
2022-08-27T01:51:23.388Z,30.76
2022-08-27T01:53:50.949Z,30.68
2022-08-27T01:56:18.312Z,30.73
2022-08-27T01:58:45.825Z,30.75
2022-08-27T02:01:13.417Z,30.81
2022-08-27T02:03:40.990Z,30.78
2022-08-27T02:06:09.764Z,30.85
2022-08-27T02:08:37.015Z,30.76
2022-08-27T02:11:04.738Z,30.77
2022-08-27T02:13:31.933Z,30.85
2022-08-27T02:15:59.197Z,30.81
2022-08-27T02:18:26.707Z,30.80
2022-08-27T02:20:53.897Z,30.75
2022-08-27T02:23:21.868Z,30.72
2022-08-27T02:25:49.331Z,30.65
2022-08-27T02:28:16.552Z,30.64
2022-08-27T02:30:44.110Z,30.46
2022-08-27T02:33:11.879Z,30.40
2022-08-27T02:35:40.563Z,30.48
2022-08-27T02:38:08.124Z,30.17
2022-08-27T02:40:37.303Z,30.22
2022-08-27T02:43:04.649Z,30.20
2022-08-27T02:45:31.873Z,30.10
2022-08-27T02:47:59.821Z,30.16
2022-08-27T02:50:27.704Z,30.02
2022-08-27T02:52:54.960Z,30.18
2022-08-27T02:55:22.980Z,30.08
2022-08-27T02:57:50.223Z,30.04
2022-08-27T03:00:18.369Z,29.97
2022-08-27T03:02:45.988Z,30.16
2022-08-27T03:05:13.794Z,30.23
2022-08-27T03:07:41.266Z,30.11
2022-08-27T03:10:09.267Z,30.13
2022-08-27T03:12:36.890Z,30.06
2022-08-27T03:15:05.130Z,30.00
2022-08-27T03:17:51.499Z,30.14
2022-08-27T03:20:19.006Z,30.01
2022-08-27T03:22:46.562Z,30.04
2022-08-27T03:25:14.071Z,30.09
2022-08-27T03:27:41.313Z,29.70
2022-08-27T03:30:10.899Z,29.94
2022-08-27T03:32:38.762Z,29.88
2022-08-27T03:35:06.187Z,29.90
2022-08-27T03:37:33.742Z,29.99
2022-08-27T03:40:01.037Z,30.11
2022-08-27T03:42:28.305Z,29.76
2022-08-27T03:44:55.799Z,29.52
2022-08-27T03:47:23.777Z,29.80
2022-08-27T03:49:51.047Z,29.90
2022-08-27T03:52:19.347Z,29.79
2022-08-27T03:54:46.672Z,29.65
2022-08-27T03:57:13.945Z,29.61
2022-08-27T03:59:41.418Z,29.69
2022-08-27T04:02:08.749Z,29.91
2022-08-27T04:04:36.309Z,29.91
2022-08-27T04:07:03.520Z,29.80
2022-08-27T04:09:30.728Z,29.91
2022-08-27T04:11:58.372Z,29.98
2022-08-27T04:14:26.707Z,29.97
2022-08-27T04:16:56.182Z,30.04
2022-08-27T04:19:27.794Z,30.05
2022-08-27T04:22:04.670Z,30.17
2022-08-27T04:24:32.903Z,30.17
2022-08-27T04:27:00.869Z,30.19
2022-08-27T04:29:28.465Z,29.99
2022-08-27T04:31:56.251Z,30.06
2022-08-27T04:34:23.613Z,30.26
2022-08-27T04:36:50.825Z,30.50
2022-08-27T04:39:20.685Z,30.74
2022-08-27T04:41:51.605Z,31.00
2022-08-27T04:44:19.068Z,31.20
2022-08-27T04:46:49.227Z,31.37
2022-08-27T04:49:16.962Z,31.55
2022-08-27T04:51:44.459Z,31.48
2022-08-27T04:54:12.890Z,31.75
2022-08-27T04:56:41.228Z,31.86
2022-08-27T04:59:10.482Z,31.85
2022-08-27T05:01:38.555Z,32.25
2022-08-27T05:04:06.161Z,32.41
2022-08-27T05:06:33.783Z,32.33
2022-08-27T05:09:01.004Z,32.59
2022-08-27T05:11:32.351Z,32.89
2022-08-27T05:14:01.823Z,32.94
2022-08-27T05:16:29.205Z,33.37
2022-08-27T05:18:57.891Z,33.26
2022-08-27T05:21:27.406Z,32.98
2022-08-27T05:23:55.109Z,32.04
2022-08-27T05:26:22.332Z,31.85
2022-08-27T05:28:49.825Z,32.99
2022-08-27T05:31:17.468Z,33.09
2022-08-27T05:33:44.815Z,33.36
2022-08-27T05:36:20.569Z,33.23
2022-08-27T05:38:51.627Z,33.90
2022-08-27T05:41:20.250Z,33.16
2022-08-27T05:43:50.402Z,33.79
2022-08-27T05:46:19.178Z,32.85
2022-08-27T05:48:46.930Z,32.87
2022-08-27T05:51:26.025Z,32.63
2022-08-27T05:53:58.331Z,32.49
2022-08-27T05:56:26.250Z,31.41
2022-08-27T05:59:12.430Z,31.61
2022-08-27T06:01:41.026Z,30.67
2022-08-27T06:04:09.322Z,30.58
2022-08-27T06:06:37.540Z,31.39
2022-08-27T06:09:05.413Z,31.56
2022-08-27T06:11:33.202Z,32.17
2022-08-27T06:14:00.471Z,32.60
2022-08-27T06:16:28.111Z,31.83
2022-08-27T06:18:57.357Z,32.09
2022-08-27T06:21:26.087Z,31.99
2022-08-27T06:23:54.020Z,32.14
2022-08-27T06:26:22.385Z,31.71
2022-08-27T06:28:50.412Z,31.85
2022-08-27T06:31:19.100Z,31.86
2022-08-27T06:33:46.991Z,32.16
2022-08-27T06:36:15.282Z,30.68
2022-08-27T06:38:45.176Z,31.38
2022-08-27T06:41:23.903Z,31.48
2022-08-27T06:43:51.384Z,32.19
2022-08-27T06:46:20.171Z,31.46
2022-08-27T06:48:48.456Z,30.67
2022-08-27T06:51:17.135Z,31.53
2022-08-27T06:53:45.221Z,31.13
2022-08-27T06:56:13.835Z,32.15
2022-08-27T06:58:41.226Z,31.28
2022-08-27T07:01:15.776Z,30.61
2022-08-27T07:03:43.667Z,30.93
2022-08-27T07:06:11.885Z,30.78
2022-08-27T07:08:39.719Z,31.25
2022-08-27T07:11:08.433Z,32.08
2022-08-27T07:13:35.933Z,31.32
2022-08-27T07:16:07.111Z,30.23
2022-08-27T07:18:34.696Z,30.96
2022-08-27T07:21:04.212Z,32.02
2022-08-27T07:23:32.748Z,30.38
2022-08-27T07:25:59.956Z,30.49
2022-08-27T07:28:27.817Z,31.56
2022-08-27T07:30:55.089Z,31.21
2022-08-27T07:33:22.355Z,31.30
2022-08-27T07:35:49.884Z,31.64
2022-08-27T07:38:17.122Z,31.36
2022-08-27T07:40:44.325Z,31.91
2022-08-27T07:43:30.452Z,32.65
2022-08-27T07:46:00.696Z,32.71
2022-08-27T07:48:28.976Z,33.29
2022-08-27T07:50:56.363Z,33.32
2022-08-27T07:53:24.087Z,33.86
2022-08-27T07:55:51.563Z,33.28
2022-08-27T07:58:18.945Z,32.96
2022-08-27T08:00:46.237Z,33.48
2022-08-27T08:03:13.710Z,33.50
2022-08-27T08:05:44.176Z,33.31
2022-08-27T08:08:11.926Z,32.32
2022-08-27T08:10:40.468Z,32.88
2022-08-27T08:13:08.072Z,33.48
2022-08-27T08:15:35.679Z,33.98
2022-08-27T08:18:03.342Z,33.47
2022-08-27T08:20:54.383Z,33.29
2022-08-27T08:23:18.645Z,34.08
2022-08-27T08:25:45.836Z,33.00
2022-08-27T08:28:13.029Z,33.18
2022-08-27T08:30:42.712Z,33.98
2022-08-27T08:33:10.135Z,34.03
2022-08-27T08:35:41.304Z,34.00
2022-08-27T08:38:09.215Z,33.84
2022-08-27T08:40:39.254Z,34.07
2022-08-27T08:43:07.161Z,34.27
2022-08-27T08:45:35.020Z,33.88
2022-08-27T08:48:05.080Z,33.95
2022-08-27T08:50:39.302Z,33.88
2022-08-27T08:53:11.633Z,33.50
2022-08-27T08:55:48.750Z,34.33
2022-08-27T08:58:28.498Z,33.85
2022-08-27T09:00:58.446Z,33.79
2022-08-27T09:03:26.510Z,34.96
2022-08-27T09:05:56.010Z,35.32
2022-08-27T09:08:35.336Z,33.72
2022-08-27T09:11:08.286Z,34.37
2022-08-27T09:13:55.705Z,34.85
2022-08-27T09:16:23.431Z,34.04
2022-08-27T09:18:51.223Z,34.52
2022-08-27T09:21:27.551Z,34.65
2022-08-27T09:24:01.927Z,35.14
2022-08-27T09:26:29.713Z,34.39
2022-08-27T09:29:16.653Z,35.28
2022-08-27T09:31:55.646Z,35.66
2022-08-27T09:34:24.265Z,35.52
2022-08-27T09:37:00.759Z,35.65
2022-08-27T09:39:29.643Z,35.96
2022-08-27T09:41:56.863Z,35.70
2022-08-27T09:44:24.103Z,36.04
2022-08-27T09:46:52.359Z,35.73
2022-08-27T09:49:19.902Z,35.85
2022-08-27T09:51:47.431Z,35.34
2022-08-27T09:54:25.059Z,35.25
2022-08-27T09:56:52.308Z,35.25
2022-08-27T09:59:23.797Z,35.77
2022-08-27T10:02:17.205Z,36.08
2022-08-27T10:04:50.974Z,36.15
2022-08-27T10:07:28.215Z,36.28
2022-08-27T10:09:58.444Z,36.47
2022-08-27T10:12:28.449Z,35.19
2022-08-27T10:14:58.009Z,36.20
2022-08-27T10:17:25.229Z,36.70
2022-08-27T10:19:53.243Z,35.05
2022-08-27T10:22:24.178Z,35.80
2022-08-27T10:25:03.746Z,36.28
2022-08-27T10:27:31.256Z,36.27
2022-08-27T10:30:03.343Z,36.40
2022-08-27T10:32:52.837Z,37.10
2022-08-27T10:35:27.390Z,36.21
2022-08-27T10:38:07.968Z,36.26
2022-08-27T10:40:43.369Z,36.70
2022-08-27T10:43:29.623Z,36.86
2022-08-27T10:46:03.820Z,37.23
2022-08-27T10:48:34.689Z,36.37
2022-08-27T10:51:08.636Z,36.71
2022-08-27T10:53:44.701Z,37.63
2022-08-27T10:56:31.485Z,36.57
2022-08-27T10:59:02.323Z,36.05
2022-08-27T11:01:48.434Z,35.28
2022-08-27T11:04:22.739Z,34.28
2022-08-27T11:06:56.877Z,35.57
2022-08-27T11:09:35.066Z,36.63
2022-08-27T11:12:14.344Z,36.55
2022-08-27T11:14:47.557Z,35.02
2022-08-27T11:17:16.499Z,36.12
2022-08-27T11:19:48.623Z,36.22
2022-08-27T11:22:26.126Z,35.94
2022-08-27T11:24:59.646Z,36.91
2022-08-27T11:27:27.481Z,36.88
2022-08-27T11:30:00.045Z,36.39
2022-08-27T11:32:30.423Z,36.95
2022-08-27T11:35:01.438Z,36.77
2022-08-27T11:37:31.827Z,37.31
2022-08-27T11:40:19.271Z,37.15
2022-08-27T11:42:48.356Z,37.55
2022-08-27T11:45:20.435Z,37.85
2022-08-27T11:47:54.472Z,38.15
2022-08-27T11:50:22.710Z,38.13
2022-08-27T11:52:58.660Z,37.87
2022-08-27T11:55:29.053Z,38.14
2022-08-27T11:58:24.139Z,37.21
2022-08-27T12:00:54.830Z,36.96
2022-08-27T12:03:22.306Z,37.22
2022-08-27T12:06:04.301Z,36.63
2022-08-27T12:08:32.226Z,36.98
2022-08-27T12:11:08.668Z,36.66
2022-08-27T12:13:45.937Z,37.28
2022-08-27T12:16:16.761Z,36.40
2022-08-27T12:18:44.275Z,37.67
2022-08-27T12:21:11.460Z,37.19
2022-08-27T12:23:45.165Z,37.89
2022-08-27T12:26:21.674Z,38.42
2022-08-27T12:28:48.918Z,38.65
2022-08-27T12:31:34.346Z,37.93
2022-08-27T12:34:01.579Z,38.78
2022-08-27T12:36:29.112Z,37.33
2022-08-27T12:38:58.444Z,37.79
2022-08-27T12:41:43.649Z,37.85
2022-08-27T12:44:13.504Z,37.92
2022-08-27T12:46:48.504Z,37.66
2022-08-27T12:49:37.767Z,37.23
2022-08-27T12:52:07.099Z,37.66
2022-08-27T12:54:53.694Z,38.03
2022-08-27T12:57:41.331Z,36.95
2022-08-27T13:00:26.570Z,36.73
2022-08-27T13:03:13.098Z,36.06
2022-08-27T13:05:42.412Z,37.32
2022-08-27T13:08:22.920Z,37.32
2022-08-27T13:10:50.428Z,36.86
2022-08-27T13:13:18.882Z,37.42
2022-08-27T13:15:50.380Z,37.32
2022-08-27T13:18:18.288Z,37.66
2022-08-27T13:20:53.497Z,37.85
2022-08-27T13:23:27.065Z,38.31
2022-08-27T13:25:55.913Z,38.14
2022-08-27T13:28:24.827Z,38.20
2022-08-27T13:30:52.506Z,37.56
2022-08-27T13:33:21.681Z,37.96
2022-08-27T13:35:49.243Z,38.42
2022-08-27T13:38:16.814Z,38.56
2022-08-27T13:40:54.816Z,37.47
2022-08-27T13:43:26.049Z,38.15
2022-08-27T13:46:00.756Z,38.17
2022-08-27T13:48:28.956Z,37.66
2022-08-27T13:50:56.525Z,38.39
2022-08-27T13:53:46.642Z,38.10
2022-08-27T13:56:28.140Z,38.01
2022-08-27T13:58:55.366Z,37.56
2022-08-27T14:01:27.335Z,38.07
2022-08-27T14:03:59.842Z,38.38
2022-08-27T14:06:47.295Z,37.62
2022-08-27T14:09:17.185Z,37.97
2022-08-27T14:11:44.393Z,37.54
2022-08-27T14:14:11.643Z,37.99
2022-08-27T14:16:39.784Z,38.01
2022-08-27T14:19:09.802Z,38.06
2022-08-27T14:21:38.338Z,38.29
2022-08-27T14:24:06.183Z,37.96
2022-08-27T14:26:33.535Z,38.07
2022-08-27T14:29:00.854Z,38.41
2022-08-27T14:31:28.471Z,38.31
2022-08-27T14:33:55.776Z,37.66
2022-08-27T14:36:24.455Z,38.09
2022-08-27T14:38:52.227Z,38.00
2022-08-27T14:41:21.487Z,37.87
2022-08-27T14:43:49.737Z,37.81
2022-08-27T14:46:27.146Z,37.86
2022-08-27T14:48:55.087Z,38.07
2022-08-27T14:51:24.168Z,38.63
2022-08-27T14:53:51.698Z,38.77
2022-08-27T14:56:23.560Z,38.85
2022-08-27T14:58:53.659Z,38.00
2022-08-27T15:01:23.988Z,37.89
2022-08-27T15:03:53.531Z,38.25
2022-08-27T15:06:23.686Z,38.51
2022-08-27T15:08:51.449Z,38.01
2022-08-27T15:11:20.417Z,38.47
2022-08-27T15:13:47.644Z,38.50
2022-08-27T15:16:35.276Z,38.52
2022-08-27T15:19:06.387Z,38.25
2022-08-27T15:21:34.200Z,38.44
2022-08-27T15:24:03.223Z,38.06
2022-08-27T15:26:30.801Z,38.20
2022-08-27T15:28:59.938Z,38.14
2022-08-27T15:31:49.117Z,38.14
2022-08-27T15:34:16.888Z,38.08
2022-08-27T15:36:45.299Z,37.85
2022-08-27T15:39:12.572Z,37.87
2022-08-27T15:42:05.212Z,38.06
2022-08-27T15:44:28.587Z,37.94
2022-08-27T15:46:56.210Z,37.74
2022-08-27T15:49:24.483Z,37.49
2022-08-27T15:51:52.484Z,37.64
2022-08-27T15:54:22.842Z,37.41
2022-08-27T15:56:50.029Z,37.30
2022-08-27T15:59:19.662Z,37.22
2022-08-27T16:01:46.905Z,37.31
2022-08-27T16:04:14.615Z,37.29
2022-08-27T16:06:42.071Z,37.26
2022-08-27T16:09:10.264Z,37.15
2022-08-27T16:11:37.730Z,37.12
2022-08-27T16:14:05.161Z,37.13
2022-08-27T16:16:32.493Z,36.93
2022-08-27T16:19:00.145Z,37.00
2022-08-27T16:21:27.873Z,37.00
2022-08-27T16:23:55.037Z,36.91
2022-08-27T16:26:23.034Z,36.82
2022-08-27T16:28:50.335Z,36.60
2022-08-27T16:31:17.592Z,36.43
2022-08-27T16:33:46.943Z,36.54
2022-08-27T16:36:14.150Z,36.26
2022-08-27T16:38:41.418Z,36.21
2022-08-27T16:41:08.861Z,36.18
2022-08-27T16:43:36.031Z,36.32
2022-08-27T16:46:03.279Z,36.28
2022-08-27T16:49:00.959Z,36.24
2022-08-27T16:51:34.457Z,36.21
2022-08-27T16:54:03.310Z,36.01
2022-08-27T16:56:32.804Z,35.95
2022-08-27T16:59:04.629Z,36.00
2022-08-27T17:01:32.068Z,35.77
2022-08-27T17:04:12.892Z,35.79
2022-08-27T17:06:46.774Z,35.82
2022-08-27T17:09:14.105Z,35.78
2022-08-27T17:11:42.734Z,35.65
2022-08-27T17:14:10.926Z,35.69
2022-08-27T17:16:38.104Z,35.54
2022-08-27T17:19:05.718Z,35.47
2022-08-27T17:21:33.407Z,35.52
2022-08-27T17:24:03.197Z,35.44
2022-08-27T17:26:31.985Z,35.36
2022-08-27T17:28:59.653Z,35.28
2022-08-27T17:31:31.045Z,35.45
2022-08-27T17:33:59.625Z,35.35
2022-08-27T17:36:28.237Z,35.39
2022-08-27T17:38:55.448Z,35.36
2022-08-27T17:41:33.945Z,35.40
2022-08-27T17:44:02.403Z,35.32
2022-08-27T17:46:29.897Z,35.29
2022-08-27T17:48:57.085Z,35.40
2022-08-27T17:51:24.552Z,35.30
2022-08-27T17:53:55.997Z,35.21
2022-08-27T17:56:27.620Z,35.25
2022-08-27T17:58:54.965Z,35.09
2022-08-27T18:01:23.354Z,35.10
2022-08-27T18:03:57.269Z,35.11
2022-08-27T18:06:24.969Z,34.94
2022-08-27T18:08:52.165Z,34.99
2022-08-27T18:11:19.702Z,34.81
2022-08-27T18:13:48.171Z,34.56
2022-08-27T18:16:15.373Z,34.99
2022-08-27T18:18:43.096Z,34.98
2022-08-27T18:21:10.424Z,34.97
2022-08-27T18:23:38.444Z,34.98
2022-08-27T18:26:09.671Z,34.82
2022-08-27T18:28:37.132Z,34.89
2022-08-27T18:31:05.711Z,34.86
2022-08-27T18:33:34.734Z,34.64
2022-08-27T18:36:01.995Z,34.62
2022-08-27T18:38:29.161Z,34.41
2022-08-27T18:40:57.631Z,34.47
2022-08-27T18:43:26.839Z,34.58
2022-08-27T18:45:54.109Z,34.43
2022-08-27T18:48:22.516Z,34.44
2022-08-27T18:50:50.984Z,34.23
2022-08-27T18:53:18.606Z,34.29
2022-08-27T18:55:48.620Z,34.24
2022-08-27T18:58:15.937Z,34.20
2022-08-27T19:00:43.625Z,34.02
2022-08-27T19:03:11.642Z,33.93
2022-08-27T19:05:38.959Z,34.09
2022-08-27T19:08:09.275Z,33.92
2022-08-27T19:10:36.718Z,33.85
2022-08-27T19:13:03.937Z,34.24
2022-08-27T19:15:31.110Z,34.38
2022-08-27T19:17:58.849Z,34.12
2022-08-27T19:20:27.533Z,33.96
2022-08-27T19:22:54.730Z,33.84
2022-08-27T19:25:23.021Z,33.92
2022-08-27T19:27:50.218Z,34.19
2022-08-27T19:30:17.402Z,33.75
2022-08-27T19:32:45.260Z,33.93
2022-08-27T19:35:12.608Z,33.93
2022-08-27T19:37:44.172Z,34.08
2022-08-27T19:40:15.596Z,33.98
2022-08-27T19:42:43.046Z,33.92
2022-08-27T19:45:10.762Z,33.93
2022-08-27T19:47:38.858Z,33.74
2022-08-27T19:50:06.355Z,34.05
2022-08-27T19:52:33.608Z,33.79
2022-08-27T19:55:13.660Z,33.96
2022-08-27T19:57:42.171Z,33.87
2022-08-27T20:00:10.281Z,33.61
2022-08-27T20:02:37.737Z,33.92
2022-08-27T20:05:21.325Z,33.83
2022-08-27T20:07:54.689Z,33.82
2022-08-27T20:10:23.498Z,33.94
2022-08-27T20:12:59.127Z,33.78
2022-08-27T20:15:27.086Z,33.63
2022-08-27T20:17:54.512Z,33.60
2022-08-27T20:20:22.790Z,33.47
2022-08-27T20:22:50.272Z,33.27
2022-08-27T20:25:17.921Z,33.47
2022-08-27T20:27:45.113Z,33.58
2022-08-27T20:30:12.796Z,33.40
2022-08-27T20:32:39.994Z,33.53
2022-08-27T20:35:08.674Z,33.61
2022-08-27T20:37:41.987Z,33.46
2022-08-27T20:40:13.129Z,33.20
2022-08-27T20:42:40.741Z,33.38
2022-08-27T20:45:11.970Z,33.20
2022-08-27T20:47:40.340Z,33.17
2022-08-27T20:50:08.114Z,33.31
2022-08-27T20:52:36.177Z,33.32
2022-08-27T20:55:03.557Z,33.32
2022-08-27T20:57:30.984Z,33.35
2022-08-27T21:00:17.588Z,33.35
2022-08-27T21:02:47.907Z,33.37
2022-08-27T21:05:16.007Z,33.23
2022-08-27T21:07:45.911Z,33.26
2022-08-27T21:10:13.355Z,33.25
2022-08-27T21:12:41.300Z,33.27
2022-08-27T21:15:08.707Z,33.17
2022-08-27T21:17:36.243Z,32.99
2022-08-27T21:20:06.293Z,33.10
2022-08-27T21:22:34.956Z,33.05
2022-08-27T21:25:02.417Z,32.69
2022-08-27T21:27:29.580Z,32.87
2022-08-27T21:29:56.804Z,32.99
2022-08-27T21:32:24.260Z,32.72
2022-08-27T21:34:51.447Z,32.63
2022-08-27T21:37:18.669Z,32.83
2022-08-27T21:39:46.117Z,32.63
2022-08-27T21:42:13.505Z,32.42
2022-08-27T21:44:40.769Z,32.18
2022-08-27T21:47:09.720Z,32.71
2022-08-27T21:49:36.914Z,32.60
2022-08-27T21:52:05.939Z,32.74
2022-08-27T21:54:35.466Z,32.74
2022-08-27T21:57:04.350Z,32.73
2022-08-27T21:59:32.418Z,32.90
2022-08-27T22:02:01.182Z,32.34
2022-08-27T22:04:30.732Z,32.06
2022-08-27T22:07:01.374Z,32.63
2022-08-27T22:09:28.823Z,32.46
2022-08-27T22:11:55.986Z,32.68
2022-08-27T22:14:23.348Z,32.56
2022-08-27T22:16:50.768Z,32.66
2022-08-27T22:19:17.961Z,32.64
2022-08-27T22:21:45.132Z,32.66
2022-08-27T22:24:12.579Z,32.51
2022-08-27T22:26:39.781Z,32.50
2022-08-27T22:29:07.373Z,32.75
2022-08-27T22:31:34.884Z,32.39
2022-08-27T22:34:02.081Z,32.42
2022-08-27T22:36:29.282Z,32.54
2022-08-27T22:38:58.405Z,32.41
2022-08-27T22:41:32.522Z,32.32
2022-08-27T22:44:00.250Z,32.43
2022-08-27T22:46:27.461Z,32.26
2022-08-27T22:48:54.675Z,32.23
2022-08-27T22:51:22.167Z,32.25
2022-08-27T22:53:49.349Z,32.44
2022-08-27T22:56:16.515Z,32.43
2022-08-27T22:58:46.286Z,32.48
2022-08-27T23:01:18.162Z,32.43
2022-08-27T23:03:45.622Z,32.29
2022-08-27T23:06:12.889Z,32.34
2022-08-27T23:08:40.147Z,32.43
2022-08-27T23:11:08.425Z,32.34
2022-08-27T23:13:35.658Z,31.87
2022-08-27T23:16:03.244Z,31.98
2022-08-27T23:18:30.831Z,31.93
2022-08-27T23:20:58.058Z,32.05
2022-08-27T23:23:29.696Z,32.06
2022-08-27T23:26:17.206Z,32.25
2022-08-27T23:28:44.425Z,32.64
2022-08-27T23:31:12.200Z,32.36
2022-08-27T23:33:41.075Z,31.33
2022-08-27T23:36:08.521Z,31.08
2022-08-27T23:38:37.067Z,28.72
2022-08-27T23:41:04.313Z,29.76
2022-08-27T23:43:31.483Z,30.85
2022-08-27T23:45:59.153Z,30.72
2022-08-27T23:48:26.813Z,31.36
2022-08-27T23:50:53.975Z,31.22
2022-08-27T23:53:21.432Z,30.65
2022-08-27T23:55:48.600Z,29.84
2022-08-27T23:58:15.765Z,30.60
